James Bay — VRLU4 — position and weather

sailwx.info

Track history (hours):
 
Tides and Currents Weather Stations Pressure Air Temp Water Temp Dewpoint Dewpoint Depression Visibility Wind Speed Wind Dir Waves Ship Positions

James Bay

Last reported at 2018-Jul-16 03:00 UTC. Time now 2018-Jul-19 11:51 UTC.
Position N 35°12' E 129°54'.

Length 179 m; draft 7.3 m.

Type: Ship. MMSI: 477427600.

Wind from 220 at 14 knots

Barometer 1010.8 mb
Air temperature 30.0 ° C
Dewpoint 28.7 ° C
Water temperature 23.0 ° C

Date/timePositionNaut miles runAvg speedWind from/ knotsBaromVisibWave heightAir tempDewpointWater temp
2018-Jul-16 03:00N 35°12' E 129°54'26111.3 220 / 141010.8 30.028.723.0
2018-Jul-15 04:00N 32°24' E 125°54'179 7.5 130 / 71010.8 30.028.726.0
2018-Jul-14 04:00N 31°00' E 122°48'12 1.2 170 / 131010.8 30.028.728.0
2018-Jul-13 18:00N 30°58' E 122°34'712.8
2018-Jul-13 17:30N 31°00' E 122°27'613.0
2018-Jul-13 17:00N 31°02' E 122°19'611.6
2018-Jul-13 16:30N 31°02' E 122°13'510.3
2018-Jul-13 16:00N 31°03' E 122°07'611.3
2018-Jul-13 15:30N 31°05' E 122°00'5 9.6
2018-Jul-13 15:00N 31°07' E 121°56'4 8.1
2018-Jul-13 14:30N 31°10' E 121°52'9 8.7
2018-Jul-13 13:30N 31°16' E 121°45'7410.2
2018-Jul-13 06:16N 32°00' E 120°35'312.5
2018-Jul-13 06:00N 32°01' E 120°31'612.6
2018-Jul-13 05:30N 32°01' E 120°24'  
2018-Jul-08 10:53N 32°00' E 120°22'3 8.0
2018-Jul-08 10:30N 32°02' E 120°25'4 8.2
2018-Jul-08 10:00N 32°02' E 120°30'  
Track history (hours):
 
Tides and Currents Weather Stations Pressure Air Temp Water Temp Dewpoint Dewpoint Depression Visibility Wind Speed Wind Dir Waves Ship Positions

James Bay

Last reported at 2018-Jul-16 03:00 UTC. Time now 2018-Jul-19 11:51 UTC.
Position N 35°12' E 129°54'.

Length 179 m; draft 7.3 m.

Type: Ship. MMSI: 477427600.

Wind from 220 at 14 knots

Barometer 1010.8 mb
Air temperature 30.0 ° C
Dewpoint 28.7 ° C
Water temperature 23.0 ° C

Date/timePositionNaut miles runAvg speedWind from/ knotsBaromVisibWave heightAir tempDewpointWater temp
2018-Jul-16 03:00N 35°12' E 129°54'26111.3 220 / 141010.8 30.028.723.0
2018-Jul-15 04:00N 32°24' E 125°54'179 7.5 130 / 71010.8 30.028.726.0
2018-Jul-14 04:00N 31°00' E 122°48'12 1.2 170 / 131010.8 30.028.728.0
2018-Jul-13 18:00N 30°58' E 122°34'712.8
2018-Jul-13 17:30N 31°00' E 122°27'613.0
2018-Jul-13 17:00N 31°02' E 122°19'611.6
2018-Jul-13 16:30N 31°02' E 122°13'510.3
2018-Jul-13 16:00N 31°03' E 122°07'611.3
2018-Jul-13 15:30N 31°05' E 122°00'5 9.6
2018-Jul-13 15:00N 31°07' E 121°56'4 8.1
2018-Jul-13 14:30N 31°10' E 121°52'9 8.7
2018-Jul-13 13:30N 31°16' E 121°45'7410.2
2018-Jul-13 06:16N 32°00' E 120°35'312.5
2018-Jul-13 06:00N 32°01' E 120°31'612.6
2018-Jul-13 05:30N 32°01' E 120°24'  
2018-Jul-08 10:53N 32°00' E 120°22'3 8.0
2018-Jul-08 10:30N 32°02' E 120°25'4 8.2
2018-Jul-08 10:00N 32°02' E 120°30'  

Dump ship's entire track history